Time;durP1;ratioP1;P1;durP2;ratioP2;P2;SDS_P1;SDS_P2;PMS_P1;PMS_P2;Temp;Humidity;BMP_temperature;BMP_pressure;BME280_temperature;BME280_humidity;BME280_pressure;Samples;Min_cycle;Max_cycle;Signal;HPM_P1;HPM_P2
2021/10/15 00:02:11;;;;;;;19.48;11.55;;;;;;;18.50;48.94;100717.63;4983400;28;20078;-62
2021/10/15 00:04:38;;;;;;;21.20;11.90;;;;;;;18.50;48.81;100724.09;4981884;28;20078;-63
2021/10/15 00:07:05;;;;;;;25.30;11.13;;;;;;;18.40;48.83;100728.06;4985012;28;20075;-61
2021/10/15 00:09:31;;;;;;;28.95;12.55;;;;;;;18.19;48.94;100710.06;4979648;28;20671;-61
2021/10/15 00:11:58;;;;;;;26.95;11.75;;;;;;;18.21;49.21;100734.00;4987894;28;20138;-62
2021/10/15 00:14:25;;;;;;;25.47;12.97;;;;;;;18.11;49.43;100727.81;4991103;28;20532;-60
2021/10/15 00:16:53;;;;;;;21.63;12.55;;;;;;;18.12;49.71;100735.13;4983826;28;20060;-59
2021/10/15 00:19:21;;;;;;;20.42;10.85;;;;;;;18.00;49.69;100711.16;4986369;28;20380;-60
2021/10/15 00:21:48;;;;;;;21.90;12.07;;;;;;;18.05;49.42;100723.47;4990763;28;20130;-62
2021/10/15 00:24:14;;;;;;;26.70;11.57;;;;;;;17.95;49.76;100714.13;4988960;28;20078;-59
2021/10/15 00:26:45;;;;;;;24.27;11.83;;;;;;;17.94;49.77;100718.09;4989752;28;20046;-62
2021/10/15 00:29:12;;;;;;;22.53;11.17;;;;;;;17.95;50.18;100713.31;4986891;28;20093;-61
2021/10/15 00:31:39;;;;;;;25.80;12.50;;;;;;;17.87;49.96;100711.25;4983768;28;20129;-59
2021/10/15 00:34:06;;;;;;;25.60;11.70;;;;;;;17.90;50.50;100711.44;4990942;28;20162;-55
2021/10/15 00:36:33;;;;;;;21.77;10.97;;;;;;;17.85;50.20;100707.94;4990407;28;20442;-58
2021/10/15 00:39:00;;;;;;;25.27;11.77;;;;;;;17.81;50.10;100701.25;4977264;28;20074;-58
2021/10/15 00:41:26;;;;;;;32.53;12.70;;;;;;;17.93;50.28;100722.09;4985046;28;20129;-63
2021/10/15 00:44:04;;;;;;;22.90;12.07;;;;;;;17.88;50.23;100712.91;4985151;28;20658;-61
2021/10/15 00:46:32;;;;;;;29.67;12.47;;;;;;;17.69;50.47;100711.16;4985547;28;20125;-60
2021/10/15 00:49:00;;;;;;;24.10;11.77;;;;;;;17.69;50.71;100727.28;4986837;28;20125;-60
2021/10/15 00:51:27;;;;;;;26.77;11.10;;;;;;;17.65;51.04;100732.72;4976526;28;20073;-60
2021/10/15 00:53:56;;;;;;;25.93;11.67;;;;;;;17.60;51.04;100724.38;4986200;28;20054;-60
2021/10/15 00:56:23;;;;;;;22.97;12.07;;;;;;;17.55;50.70;100721.72;4989304;28;20174;-60
2021/10/15 00:58:50;;;;;;;20.57;11.23;;;;;;;17.48;50.74;100727.00;4991234;28;20046;-60
2021/10/15 01:01:17;;;;;;;18.80;10.33;;;;;;;17.39;50.74;100726.09;4990594;28;20541;-60
2021/10/15 01:03:44;;;;;;;20.93;10.23;;;;;;;17.20;50.92;100710.22;4986910;28;20126;-61
2021/10/15 01:06:11;;;;;;;18.97;11.20;;;;;;;17.25;51.35;100732.63;4990871;28;20133;-61
2021/10/15 01:08:44;;;;;;;22.77;12.20;;;;;;;17.08;51.46;100704.28;4982995;28;20398;-59
2021/10/15 01:11:13;;;;;;;23.50;10.47;;;;;;;17.12;51.33;100727.91;4988864;28;20108;-59
2021/10/15 01:13:41;;;;;;;20.53;11.27;;;;;;;17.01;51.47;100724.50;4988665;28;20130;-59
2021/10/15 01:16:09;;;;;;;20.43;10.17;;;;;;;17.05;51.66;100716.22;4984200;28;20058;-59
2021/10/15 01:18:38;;;;;;;18.17;9.97;;;;;;;16.81;51.58;100677.88;4988399;28;20136;-59
2021/10/15 01:21:06;;;;;;;23.60;10.97;;;;;;;16.94;52.09;100706.34;4972762;28;20133;-60
2021/10/15 01:23:34;;;;;;;27.13;10.20;;;;;;;17.02;52.11;100720.50;4988303;28;20173;-59
2021/10/15 01:26:01;;;;;;;23.50;10.43;;;;;;;17.02;51.95;100719.69;4987198;28;20384;-58
2021/10/15 01:28:29;;;;;;;21.00;11.10;;;;;;;17.01;52.47;100709.56;4989658;28;20184;-60
2021/10/15 01:30:56;;;;;;;35.63;12.10;;;;;;;16.99;52.03;100703.38;4987317;28;20125;-60
2021/10/15 01:33:23;;;;;;;22.93;10.73;;;;;;;16.88;52.34;100677.44;4992629;28;20085;-61
2021/10/15 01:35:51;;;;;;;21.47;10.90;;;;;;;17.02;52.29;100692.28;4991580;28;20051;-61
2021/10/15 01:38:18;;;;;;;22.27;9.83;;;;;;;17.10;52.03;100696.34;4992689;28;20112;-61
2021/10/15 01:40:46;;;;;;;21.60;11.37;;;;;;;17.04;52.39;100689.16;4990444;28;20078;-60
2021/10/15 01:43:21;;;;;;;22.73;10.73;;;;;;;17.10;52.18;100702.00;4988176;28;20461;-60
2021/10/15 01:45:48;;;;;;;23.57;10.50;;;;;;;17.15;52.19;100701.84;4983473;28;20125;-60
2021/10/15 01:48:16;;;;;;;31.63;11.93;;;;;;;16.96;52.54;100678.66;4986066;28;20085;-60
2021/10/15 01:50:43;;;;;;;22.77;10.33;;;;;;;17.01;52.65;100696.28;4997068;28;20046;-59
2021/10/15 01:53:10;;;;;;;23.10;10.73;;;;;;;16.99;53.04;100703.38;4990062;28;20132;-59
2021/10/15 01:55:37;;;;;;;26.27;11.17;;;;;;;16.97;53.12;100700.06;4993058;28;20097;-58
2021/10/15 01:58:04;;;;;;;23.30;10.60;;;;;;;16.91;52.93;100693.72;4989085;28;20451;-59
2021/10/15 02:00:31;;;;;;;23.53;11.47;;;;;;;16.82;53.55;100690.00;4992810;28;20046;-59
2021/10/15 02:02:58;;;;;;;24.50;11.70;;;;;;;16.71;53.69;100680.91;4991455;28;20050;-60
2021/10/15 02:05:26;;;;;;;21.27;9.50;;;;;;;16.75;53.48;100698.91;4989654;28;20085;-59
2021/10/15 02:07:52;;;;;;;23.43;11.37;;;;;;;16.59;53.74;100683.47;4990815;28;20070;-59
2021/10/15 02:10:21;;;;;;;22.00;12.33;;;;;;;16.50;53.80;100672.09;4991182;28;20133;-59
2021/10/15 02:12:48;;;;;;;22.40;11.00;;;;;;;16.67;54.14;100695.97;4989047;28;20046;-59
2021/10/15 02:15:15;;;;;;;21.90;10.37;;;;;;;16.65;54.01;100690.66;4991761;28;20125;-58
2021/10/15 02:17:42;;;;;;;19.27;10.83;;;;;;;16.71;53.79;100697.81;4990676;28;20134;-58
2021/10/15 02:20:12;;;;;;;18.27;10.13;;;;;;;16.80;53.52;100706.41;4991010;28;20517;-58
2021/10/15 02:22:41;;;;;;;20.50;10.30;;;;;;;16.88;53.14;100701.97;4987648;28;20089;-58
2021/10/15 02:25:09;;;;;;;19.67;10.23;;;;;;;16.64;53.34;100649.50;4983006;28;20056;-59
2021/10/15 02:27:37;;;;;;;20.87;11.10;;;;;;;16.78;53.32;100689.78;4988833;28;20051;-59
2021/10/15 02:30:06;;;;;;;20.83;10.83;;;;;;;16.63;53.91;100678.84;4991851;28;20512;-59
2021/10/15 02:32:33;;;;;;;19.10;9.60;;;;;;;16.54;53.81;100678.75;4977924;28;20470;-59
2021/10/15 02:35:00;;;;;;;21.23;11.23;;;;;;;16.53;54.09;100684.72;4993854;28;20129;-60
2021/10/15 02:37:27;;;;;;;22.40;11.67;;;;;;;16.42;53.67;100664.41;4992105;28;20153;-60
2021/10/15 02:39:53;;;;;;;20.30;9.17;;;;;;;16.56;53.85;100687.75;4987328;28;20082;-59
2021/10/15 02:42:20;;;;;;;21.13;11.67;;;;;;;16.57;53.33;100685.75;4990722;28;20133;-60
2021/10/15 02:44:47;;;;;;;21.53;11.47;;;;;;;16.59;53.50;100689.09;4991290;28;20154;-59
2021/10/15 02:47:14;;;;;;;21.13;10.97;;;;;;;16.59;53.37;100684.31;4987716;28;20088;-59
2021/10/15 02:49:42;;;;;;;18.60;10.07;;;;;;;16.56;53.65;100682.13;4989705;28;20078;-60
2021/10/15 02:52:09;;;;;;;21.07;12.57;;;;;;;16.52;53.43;100677.44;4986567;28;20130;-60
2021/10/15 02:54:36;;;;;;;21.57;10.70;;;;;;;16.49;53.46;100678.06;4988097;28;20085;-59
2021/10/15 02:57:03;;;;;;;25.43;11.23;;;;;;;16.43;53.56;100680.16;4982407;28;20077;-60
2021/10/15 02:59:30;;;;;;;22.60;12.07;;;;;;;16.37;54.17;100672.13;4992984;28;20074;-59
2021/10/15 03:01:57;;;;;;;21.80;11.40;;;;;;;16.34;54.33;100676.41;4988553;28;20125;-59
2021/10/15 03:04:24;;;;;;;18.30;10.30;;;;;;;16.22;54.33;100662.88;4991674;28;20069;-61
2021/10/15 03:06:50;;;;;;;27.00;11.50;;;;;;;16.09;54.84;100649.66;4979845;28;20133;-62
2021/10/15 03:09:17;;;;;;;20.43;11.10;;;;;;;15.90;55.34;100640.47;4989455;28;20073;-62
2021/10/15 03:11:44;;;;;;;21.23;10.23;;;;;;;16.04;55.28;100673.13;4990762;28;20082;-61
2021/10/15 03:14:11;;;;;;;19.27;10.63;;;;;;;15.95;55.46;100662.91;4991292;28;20166;-61
2021/10/15 03:16:38;;;;;;;16.30;9.43;;;;;;;16.00;55.44;100662.78;4989989;28;20097;-60
2021/10/15 03:19:05;;;;;;;21.67;10.40;;;;;;;15.95;55.23;100651.66;4979888;28;20574;-61
2021/10/15 03:21:32;;;;;;;23.20;11.03;;;;;;;15.97;55.14;100655.00;4990829;28;20133;-61
2021/10/15 03:23:59;;;;;;;17.47;9.67;;;;;;;16.05;55.35;100663.53;4990512;28;20120;-61
2021/10/15 03:26:26;;;;;;;23.63;11.33;;;;;;;16.01;55.16;100678.56;4991541;28;20078;-61
2021/10/15 03:28:53;;;;;;;20.43;10.77;;;;;;;15.99;55.24;100658.31;4985679;28;20053;-61
2021/10/15 03:31:20;;;;;;;28.93;11.40;;;;;;;15.98;55.28;100656.66;4985638;28;20050;-61
2021/10/15 03:33:48;;;;;;;24.03;11.30;;;;;;;15.94;55.00;100650.81;4988418;28;20093;-61
2021/10/15 03:36:15;;;;;;;19.33;10.67;;;;;;;15.94;54.89;100667.72;4990696;28;20088;-61
2021/10/15 03:38:42;;;;;;;26.97;9.57;;;;;;;15.76;54.97;100641.34;4988432;28;20133;-61
2021/10/15 03:41:09;;;;;;;16.60;9.87;;;;;;;15.91;55.05;100668.34;4988216;28;20057;-60
2021/10/15 03:43:36;;;;;;;19.47;9.67;;;;;;;15.87;55.13;100667.31;4992625;28;20137;-60
2021/10/15 03:46:02;;;;;;;20.13;10.17;;;;;;;15.58;54.83;100620.53;4991562;28;20129;-60
2021/10/15 03:48:29;;;;;;;20.00;10.20;;;;;;;15.91;54.61;100664.69;4988934;28;20054;-60
2021/10/15 03:50:56;;;;;;;20.67;9.70;;;;;;;15.92;54.45;100667.19;4988054;28;20162;-60
2021/10/15 03:53:23;;;;;;;20.73;9.70;;;;;;;15.96;54.43;100671.03;4990029;28;20444;-62
2021/10/15 03:55:50;;;;;;;23.13;11.30;;;;;;;15.95;54.33;100669.38;4989439;28;20137;-62
2021/10/15 03:58:16;;;;;;;15.37;9.60;;;;;;;15.86;54.56;100663.66;4990340;28;20074;-59
2021/10/15 04:00:44;;;;;;;21.53;9.80;;;;;;;15.87;54.81;100662.50;4988776;28;20046;-60
2021/10/15 04:03:11;;;;;;;16.60;10.30;;;;;;;15.75;54.79;100636.00;4980583;28;20047;-63
2021/10/15 04:05:37;;;;;;;18.30;9.53;;;;;;;15.80;54.86;100650.84;4981179;28;20077;-60
2021/10/15 04:08:04;;;;;;;18.90;9.37;;;;;;;15.68;55.25;100644.06;4991409;28;20078;-60
2021/10/15 04:10:31;;;;;;;18.70;10.10;;;;;;;15.53;55.91;100651.63;4986540;28;20133;-60
2021/10/15 04:12:58;;;;;;;18.30;9.63;;;;;;;15.50;56.16;100659.88;4986124;28;20096;-59
2021/10/15 04:15:25;;;;;;;14.93;9.50;;;;;;;15.10;56.32;100615.28;4990099;28;20129;-59
2021/10/15 04:17:52;;;;;;;20.67;10.53;;;;;;;15.43;56.42;100676.31;4987619;28;20136;-59
2021/10/15 04:20:18;;;;;;;16.87;10.03;;;;;;;15.28;56.57;100650.16;4992243;28;20085;-59
2021/10/15 04:22:45;;;;;;;15.03;9.00;;;;;;;15.29;56.83;100657.44;4988365;28;20558;-59
2021/10/15 04:25:12;;;;;;;19.90;9.50;;;;;;;15.24;57.09;100654.69;4990651;28;20138;-59
2021/10/15 04:27:39;;;;;;;18.67;9.77;;;;;;;15.22;57.19;100659.81;4978356;28;20129;-62
2021/10/15 04:30:06;;;;;;;18.53;9.43;;;;;;;15.17;57.22;100655.09;4989360;28;20125;-62
2021/10/15 04:32:33;;;;;;;18.10;10.30;;;;;;;14.87;57.35;100608.69;4988836;28;20137;-60
2021/10/15 04:34:59;;;;;;;18.83;9.53;;;;;;;15.14;57.35;100660.50;4991155;28;20130;-61
2021/10/15 04:37:26;;;;;;;19.37;9.93;;;;;;;15.12;57.28;100660.00;4990930;28;20100;-61
2021/10/15 04:39:53;;;;;;;17.67;9.10;;;;;;;15.15;57.29;100667.81;4986364;28;20150;-52
2021/10/15 04:42:20;;;;;;;18.77;10.83;;;;;;;15.10;57.30;100665.09;4985254;28;20495;-61
2021/10/15 04:44:47;;;;;;;16.67;8.73;;;;;;;15.24;56.70;100674.38;4986401;28;20061;-61
2021/10/15 04:47:14;;;;;;;21.77;9.33;;;;;;;15.25;56.76;100675.25;4984108;28;20056;-62
2021/10/15 04:49:41;;;;;;;19.67;8.57;;;;;;;15.22;56.56;100678.69;4990954;28;20074;-59
2021/10/15 04:52:07;;;;;;;16.67;9.40;;;;;;;15.26;56.60;100680.56;4976044;28;20122;-59
2021/10/15 04:54:34;;;;;;;15.90;9.70;;;;;;;15.22;56.52;100659.00;4985932;28;20142;-60
2021/10/15 04:57:01;;;;;;;22.00;11.23;;;;;;;15.35;56.30;100687.16;4991051;28;20120;-59
2021/10/15 04:59:28;;;;;;;21.90;10.60;;;;;;;15.27;56.22;100664.50;4990978;28;20133;-59
2021/10/15 05:01:55;;;;;;;19.63;9.97;;;;;;;15.39;56.25;100687.38;4985196;28;20093;-59
2021/10/15 05:04:22;;;;;;;14.63;8.43;;;;;;;15.33;56.37;100680.16;4993729;28;20054;-61
2021/10/15 05:06:49;;;;;;;16.03;8.67;;;;;;;15.26;56.63;100689.00;4991829;28;20157;-60
2021/10/15 05:09:35;;;;;;;16.43;8.70;;;;;;;15.14;56.89;100681.06;4987332;28;20125;-60
2021/10/15 05:12:05;;;;;;;15.90;8.17;;;;;;;15.19;56.43;100680.13;4993134;28;20038;-62
2021/10/15 05:14:34;;;;;;;17.25;7.93;;;;;;;15.16;56.32;100672.31;4992639;28;20092;-63
2021/10/15 05:17:02;;;;;;;15.57;8.70;;;;;;;15.20;56.32;100676.16;4987457;28;20145;-64
2021/10/15 05:19:29;;;;;;;18.57;9.47;;;;;;;15.29;56.14;100681.91;4987773;28;20050;-63
2021/10/15 05:21:58;;;;;;;14.30;7.73;;;;;;;15.30;56.19;100681.59;4994596;28;20042;-61
2021/10/15 05:24:26;;;;;;;14.30;7.80;;;;;;;15.25;56.27;100676.09;4992695;28;20096;-61
2021/10/15 05:26:53;;;;;;;17.23;9.50;;;;;;;15.33;56.19;100691.41;4994763;28;20125;-61
2021/10/15 05:29:20;;;;;;;13.93;7.93;;;;;;;15.34;56.27;100693.06;4988034;28;20132;-64
2021/10/15 05:31:47;;;;;;;15.20;7.70;;;;;;;15.30;56.25;100684.41;4992963;28;20129;-61
2021/10/15 05:34:14;;;;;;;15.60;8.77;;;;;;;15.35;56.36;100701.22;4993268;28;20052;-61
2021/10/15 05:36:41;;;;;;;15.40;8.87;;;;;;;15.36;56.38;100697.25;4992564;28;20130;-64
2021/10/15 05:39:07;;;;;;;15.47;8.07;;;;;;;15.38;56.40;100696.94;4992084;28;20125;-64
2021/10/15 05:41:34;;;;;;;16.33;8.57;;;;;;;15.37;56.30;100704.53;4987821;28;20081;-62
2021/10/15 05:44:01;;;;;;;17.27;8.23;;;;;;;15.29;56.22;100701.63;4993174;28;20134;-63
2021/10/15 05:46:28;;;;;;;17.87;9.50;;;;;;;15.30;56.21;100703.28;4987830;28;20137;-63
2021/10/15 05:48:55;;;;;;;19.80;8.63;;;;;;;15.29;56.25;100699.63;4993027;28;20081;-64
2021/10/15 05:51:24;;;;;;;19.43;9.77;;;;;;;15.26;56.27;100705.88;4992929;28;20057;-59
2021/10/15 05:53:53;;;;;;;12.23;8.47;;;;;;;15.21;56.30;100686.25;4988709;28;20053;-61
2021/10/15 05:59:03;;;;;;;16.17;8.77;;;;;;;15.21;56.51;100688.25;4992609;28;20557;-62
2021/10/15 06:01:33;;;;;;;16.13;9.23;;;;;;;15.20;56.58;100690.22;4987183;28;20105;-58
2021/10/15 06:14:55;;;;;;;15.40;7.77;;;;;;;14.27;59.38;100695.59;4987423;28;20483;-61
2021/10/15 06:17:22;;;;;;;19.53;9.37;;;;;;;14.19;59.43;100699.91;4988230;28;20137;-61
2021/10/15 06:22:24;;;;;;;16.67;8.65;;;;;;;14.10;59.63;100698.91;4992124;28;20134;-61
2021/10/15 06:24:52;;;;;;;14.47;7.93;;;;;;;14.13;59.52;100708.72;4993575;28;20538;-61
2021/10/15 06:27:21;;;;;;;21.17;10.63;;;;;;;13.96;59.92;100684.75;4990494;28;20089;-61
2021/10/15 06:29:51;;;;;;;18.23;10.33;;;;;;;13.43;59.83;100611.03;4985075;28;20482;-61
2021/10/15 06:32:21;;;;;;;21.20;11.97;;;;;;;14.07;59.97;100704.28;4990201;28;20296;-61
2021/10/15 06:34:48;;;;;;;17.30;9.60;;;;;;;14.04;60.12;100702.06;4991455;28;20128;-60
2021/10/15 06:37:17;;;;;;;15.93;9.33;;;;;;;14.05;60.09;100706.53;4992015;28;20085;-60
2021/10/15 06:39:47;;;;;;;17.60;9.93;;;;;;;13.98;60.06;100684.44;4988904;28;20046;-59
2021/10/15 06:42:14;;;;;;;22.43;8.77;;;;;;;14.04;60.03;100699.25;4989592;28;20138;-59
2021/10/15 06:44:41;;;;;;;16.87;9.53;;;;;;;14.07;60.03;100702.31;4989763;28;20086;-60
2021/10/15 06:47:08;;;;;;;17.47;8.97;;;;;;;14.07;60.29;100702.31;4992151;28;20133;-60
2021/10/15 06:49:34;;;;;;;23.20;10.77;;;;;;;14.10;60.23;100709.31;4987285;28;20125;-61
2021/10/15 06:52:02;;;;;;;17.00;9.17;;;;;;;14.14;59.81;100699.13;4992553;28;20082;-60
2021/10/15 06:54:29;;;;;;;20.20;9.97;;;;;;;13.94;60.17;100678.59;4991862;28;20133;-60
2021/10/15 06:56:55;;;;;;;15.07;8.33;;;;;;;14.06;60.33;100697.00;4991712;28;20086;-61
2021/10/15 06:59:22;;;;;;;17.13;8.80;;;;;;;14.08;60.45;100694.72;4994144;28;20073;-60
2021/10/15 07:01:50;;;;;;;17.40;9.93;;;;;;;14.03;60.82;100703.22;4989671;28;20078;-60
2021/10/15 07:04:20;;;;;;;17.60;9.77;;;;;;;13.94;61.14;100700.22;4985163;28;20061;-60
2021/10/15 07:06:46;;;;;;;20.90;9.97;;;;;;;14.00;61.01;100707.44;4991962;28;20100;-59
2021/10/15 07:09:13;;;;;;;19.33;11.67;;;;;;;14.04;61.21;100707.69;4988976;28;20105;-59
2021/10/15 07:11:40;;;;;;;22.53;10.97;;;;;;;14.07;61.21;100709.91;4974354;28;20502;-60
2021/10/15 07:14:07;;;;;;;23.50;12.13;;;;;;;14.18;61.10;100708.63;4974141;28;20093;-60
2021/10/15 07:16:34;;;;;;;19.17;10.40;;;;;;;14.14;61.45;100710.38;4990587;28;20181;-60
2021/10/15 07:19:01;;;;;;;19.67;10.37;;;;;;;14.23;61.29;100712.22;4985629;28;20409;-60
2021/10/15 07:21:28;;;;;;;21.47;11.40;;;;;;;14.33;61.09;100719.66;4986985;28;20474;-60
2021/10/15 07:23:56;;;;;;;20.53;10.03;;;;;;;14.45;60.77;100722.84;4986736;28;20048;-60
2021/10/15 07:26:23;;;;;;;17.83;11.50;;;;;;;14.46;60.83;100723.69;4982803;28;20084;-60
2021/10/15 07:28:50;;;;;;;22.10;12.23;;;;;;;14.53;60.56;100707.34;4993111;28;20467;-61
2021/10/15 07:31:17;;;;;;;21.40;11.67;;;;;;;14.82;60.17;100738.09;4982222;28;20093;-61
2021/10/15 07:33:44;;;;;;;20.60;11.77;;;;;;;15.05;59.63;100741.13;4974404;28;20064;-60
2021/10/15 07:36:11;;;;;;;27.20;11.70;;;;;;;15.25;59.15;100735.16;4982372;28;20046;-60
2021/10/15 07:38:38;;;;;;;23.10;11.33;;;;;;;15.47;58.77;100742.09;4974416;28;20170;-60
2021/10/15 07:41:06;;;;;;;19.80;11.07;;;;;;;15.76;58.08;100751.16;4986501;28;20057;-60
2021/10/15 07:43:33;;;;;;;20.23;11.50;;;;;;;15.74;57.76;100736.53;4986987;28;20050;-61
2021/10/15 07:46:01;;;;;;;24.60;11.93;;;;;;;16.00;57.37;100761.38;4981101;28;20533;-61
2021/10/15 07:48:28;;;;;;;19.63;11.23;;;;;;;16.04;57.08;100740.75;4979382;28;20134;-60
2021/10/15 07:50:55;;;;;;;14.80;9.73;;;;;;;16.32;56.60;100760.47;4987730;28;20089;-60
2021/10/15 07:53:22;;;;;;;17.83;10.93;;;;;;;16.67;56.14;100741.09;4979184;28;20459;-71
2021/10/15 07:55:49;;;;;;;25.07;11.63;;;;;;;17.06;55.46;100748.94;4979742;28;20457;-71
2021/10/15 07:58:16;;;;;;;17.13;10.43;;;;;;;17.45;55.13;100761.50;4991725;28;20082;-70
2021/10/15 08:00:43;;;;;;;21.00;11.13;;;;;;;17.69;54.40;100749.88;4992417;28;20051;-70
2021/10/15 08:03:10;;;;;;;23.43;12.03;;;;;;;17.98;54.37;100767.16;4987913;28;20054;-70
2021/10/15 08:05:37;;;;;;;22.73;13.10;;;;;;;18.27;53.80;100767.78;4985775;28;20129;-70
2021/10/15 08:08:04;;;;;;;21.30;11.52;;;;;;;18.60;52.76;100771.88;4984274;28;20137;-70
2021/10/15 08:10:31;;;;;;;23.15;11.77;;;;;;;18.97;52.40;100775.25;4989181;28;20046;-70
2021/10/15 08:13:00;;;;;;;21.40;12.50;;;;;;;19.38;51.92;100773.91;4989506;28;20061;-70
2021/10/15 08:15:28;;;;;;;22.92;10.93;;;;;;;19.59;51.19;100783.41;4979678;28;20104;-72
2021/10/15 08:17:55;;;;;;;19.45;9.95;;;;;;;19.92;50.45;100782.03;4992277;28;20061;-70
2021/10/15 08:20:22;;;;;;;18.33;10.02;;;;;;;20.13;49.73;100763.91;4988849;28;20446;-70
2021/10/15 08:22:52;;;;;;;17.63;9.07;;;;;;;20.48;49.26;100780.78;4990439;28;20086;-70
2021/10/15 08:25:28;;;;;;;17.40;10.55;;;;;;;20.73;48.56;100792.34;4991063;28;20050;-71
2021/10/15 08:27:56;;;;;;;17.77;10.02;;;;;;;20.89;48.10;100793.44;4991714;28;20085;-71
2021/10/15 08:30:24;;;;;;;14.85;9.60;;;;;;;21.00;47.33;100806.03;4981312;28;20059;-70
2021/10/15 08:32:52;;;;;;;17.20;9.82;;;;;;;21.15;47.21;100798.88;4991152;28;20057;-69
2021/10/15 08:35:21;;;;;;;19.10;10.13;;;;;;;21.63;46.60;100793.81;4984031;28;20046;-70
2021/10/15 08:37:50;;;;;;;17.88;10.77;;;;;;;21.95;45.95;100792.97;4987623;28;20549;-70
2021/10/15 08:40:17;;;;;;;15.52;10.45;;;;;;;22.35;44.99;100795.19;4978053;28;20503;-68
2021/10/15 08:42:49;;;;;;;17.05;10.60;;;;;;;22.69;44.91;100799.56;4993128;28;20129;-71
2021/10/15 08:45:16;;;;;;;21.83;10.65;;;;;;;22.96;44.23;100800.06;4994668;28;20084;-69
2021/10/15 08:47:43;;;;;;;21.38;11.93;;;;;;;23.32;43.34;100810.53;4994389;28;20108;-70
2021/10/15 08:50:31;;;;;;;19.52;11.02;;;;;;;23.64;42.62;100782.97;4990641;28;20050;-69
2021/10/15 08:52:58;;;;;;;21.20;11.00;;;;;;;24.12;41.83;100785.94;4994908;28;20057;-69
2021/10/15 08:55:25;;;;;;;18.42;11.55;;;;;;;24.70;41.29;100809.06;4995686;28;20216;-70
2021/10/15 08:57:56;;;;;;;20.92;11.82;;;;;;;25.03;40.80;100819.22;4993986;28;20137;-70
2021/10/15 09:00:33;;;;;;;23.60;12.15;;;;;;;25.33;40.21;100822.38;4996212;28;20133;-60
2021/10/15 09:03:22;;;;;;;20.70;13.38;;;;;;;25.89;40.03;100821.13;4990354;28;20047;-59
2021/10/15 09:05:57;;;;;;;26.02;14.95;;;;;;;26.45;38.73;100817.66;4993357;28;20125;-59
2021/10/15 09:08:27;;;;;;;24.88;15.27;;;;;;;27.08;37.47;100825.69;4994230;28;20100;-59
2021/10/15 09:10:54;;;;;;;23.90;13.23;;;;;;;27.64;36.74;100833.44;4995553;28;20054;-59
2021/10/15 09:13:21;;;;;;;20.88;13.30;;;;;;;28.15;35.66;100828.31;4995297;28;20049;-58
2021/10/15 09:15:51;;;;;;;19.92;11.32;;;;;;;28.15;35.08;100796.72;4991629;28;20073;-59
2021/10/15 09:18:32;;;;;;;16.73;10.98;;;;;;;28.27;35.08;100820.25;4978909;28;20108;-59
2021/10/15 09:21:14;;;;;;;19.98;12.27;;;;;;;28.22;34.96;100809.09;4984410;28;20111;-59
2021/10/15 09:23:45;;;;;;;19.75;10.00;;;;;;;28.65;34.21;100823.06;4994804;28;20136;-59
2021/10/15 09:26:12;;;;;;;15.70;9.85;;;;;;;28.74;33.82;100814.91;4994437;28;20058;-59
2021/10/15 09:28:47;;;;;;;15.65;10.30;;;;;;;28.89;33.41;100819.56;4987736;28;20130;-59
2021/10/15 09:31:15;;;;;;;21.92;11.13;;;;;;;28.93;33.05;100826.16;4993718;28;20483;-59
2021/10/15 09:33:54;;;;;;;16.43;10.77;;;;;;;29.29;32.96;100815.72;4980314;28;20516;-59
2021/10/15 09:36:21;;;;;;;22.23;11.10;;;;;;;30.04;31.56;100828.81;4989456;28;20050;-59
2021/10/15 09:38:50;;;;;;;15.68;10.25;;;;;;;30.48;30.58;100798.88;4990773;28;20113;-59
2021/10/15 09:41:36;;;;;;;26.90;10.52;;;;;;;31.04;30.91;100814.50;4989503;28;20097;-58
2021/10/15 09:44:33;;;;;;;16.58;11.20;;;;;;;31.12;30.34;100805.41;4986387;28;20051;-59
2021/10/15 09:47:30;;;;;;;23.13;11.52;;;;;;;31.12;30.52;100816.94;4990986;28;20109;-59
2021/10/15 09:49:59;;;;;;;20.45;12.15;;;;;;;31.50;29.88;100799.16;4978994;28;20149;-60
2021/10/15 09:52:44;;;;;;;20.17;11.95;;;;;;;31.68;29.59;100819.28;4994679;28;20057;-60
2021/10/15 09:55:33;;;;;;;18.98;11.73;;;;;;;32.04;29.00;100817.06;4992137;28;20141;-61
2021/10/15 09:58:24;;;;;;;17.83;11.77;;;;;;;31.88;28.65;100808.06;4986974;28;20048;-61
2021/10/15 10:00:52;;;;;;;20.13;11.88;;;;;;;31.96;28.29;100789.44;4992104;28;20073;-60
2021/10/15 10:03:21;;;;;;;21.17;12.35;;;;;;;32.40;27.72;100816.81;4991651;28;20043;-60
2021/10/15 10:05:49;;;;;;;19.83;12.02;;;;;;;32.65;27.57;100805.06;4994273;28;20042;-59
2021/10/15 10:08:17;;;;;;;19.10;11.93;;;;;;;32.89;26.89;100818.50;4983266;28;20156;-60
2021/10/15 10:10:45;;;;;;;20.70;12.27;;;;;;;32.82;26.96;100811.94;4994236;28;20061;-59
2021/10/15 10:13:15;;;;;;;18.48;11.43;;;;;;;32.75;26.29;100813.66;4991740;28;20070;-59
2021/10/15 10:15:43;;;;;;;21.08;12.20;;;;;;;32.63;26.02;100814.16;4993882;28;20082;-59
2021/10/15 10:18:13;;;;;;;17.08;12.30;;;;;;;32.71;26.57;100820.72;4983081;28;20122;-60
2021/10/15 10:20:49;;;;;;;17.95;11.82;;;;;;;32.91;25.82;100806.47;4989187;28;20125;-61
2021/10/15 10:23:28;;;;;;;20.13;12.80;;;;;;;33.19;25.79;100817.78;4994499;28;20125;-62
2021/10/15 10:26:07;;;;;;;18.35;13.50;;;;;;;33.64;25.65;100814.81;4989412;28;20113;-60
2021/10/15 10:28:34;;;;;;;20.85;14.13;;;;;;;33.62;25.16;100814.41;4989449;28;20046;-61
2021/10/15 10:31:06;;;;;;;19.17;13.35;;;;;;;33.67;24.90;100808.13;4987703;28;20112;-61
2021/10/15 10:33:55;;;;;;;23.05;13.50;;;;;;;33.79;25.32;100800.13;4992785;28;20073;-61
2021/10/15 10:36:23;;;;;;;25.00;12.77;;;;;;;34.25;24.35;100811.06;4988949;28;20142;-61
2021/10/15 10:38:50;;;;;;;26.20;15.50;;;;;;;34.23;24.38;100818.56;4977011;28;20086;-61
2021/10/15 10:41:18;;;;;;;23.83;14.25;;;;;;;34.20;24.22;100821.09;4974487;28;20061;-62
2021/10/15 10:43:45;;;;;;;22.67;13.50;;;;;;;34.32;24.10;100821.72;4989293;28;20074;-57
2021/10/15 10:46:15;;;;;;;18.05;13.23;;;;;;;34.66;23.74;100813.72;4992389;28;20047;-57
2021/10/15 10:48:48;;;;;;;21.92;14.15;;;;;;;35.02;23.87;100813.13;4978102;28;20055;-57
2021/10/15 10:51:15;;;;;;;20.52;13.82;;;;;;;35.27;23.16;100820.53;4984768;28;20129;-58
2021/10/15 10:54:03;;;;;;;21.58;14.25;;;;;;;35.43;23.22;100814.00;4992996;28;20046;-58
2021/10/15 10:56:39;;;;;;;;;;;;;;;35.38;24.44;100812.41;4992408;28;20077;-57
2021/10/15 10:59:18;;;;;;;25.10;14.00;;;;;;;35.87;22.97;100803.97;4993675;28;20362;-57
2021/10/15 11:01:58;;;;;;;24.88;14.27;;;;;;;36.28;22.91;100805.53;4992628;28;20038;-57
2021/10/15 11:04:29;;;;;;;20.73;14.25;;;;;;;36.63;22.17;100803.03;4989264;28;20085;-58
2021/10/15 11:07:20;;;;;;;26.25;14.90;;;;;;;36.91;21.53;100807.25;4974238;28;20046;-58
2021/10/15 11:10:01;;;;;;;30.52;18.48;;;;;;;37.15;22.07;100796.25;4983110;28;20086;-58
2021/10/15 11:12:28;;;;;;;32.22;15.55;;;;;;;37.26;21.39;100820.03;4991252;28;20076;-58
2021/10/15 11:14:57;;;;;;;23.15;14.52;;;;;;;37.44;20.77;100814.56;4992491;28;20585;-59
2021/10/15 11:17:26;;;;;;;24.05;14.43;;;;;;;37.85;20.44;100818.75;4992781;28;20450;-59
2021/10/15 11:20:26;;;;;;;18.60;13.35;;;;;;;38.28;20.17;100814.50;4988587;28;20137;-59
2021/10/15 11:22:59;;;;;;;18.27;11.55;;;;;;;38.59;19.24;100813.94;4992330;28;20137;-58
2021/10/15 11:25:39;;;;;;;18.55;10.38;;;;;;;38.80;18.34;100819.03;4990628;28;20125;-59
2021/10/15 11:28:10;;;;;;;18.90;11.95;;;;;;;39.08;18.39;100801.84;4992476;28;20077;-59
2021/10/15 11:30:42;;;;;;;17.92;11.77;;;;;;;39.26;17.90;100796.16;4991774;28;20088;-60
2021/10/15 11:33:12;;;;;;;17.42;11.38;;;;;;;39.45;17.83;100802.97;4986576;28;20517;-60
2021/10/15 11:35:42;;;;;;;16.63;9.48;;;;;;;39.68;17.46;100800.84;4983437;28;20050;-61
2021/10/15 11:38:10;;;;;;;17.73;10.05;;;;;;;39.63;16.98;100752.59;4992381;28;20141;-60